Time;durP1;ratioP1;P1;durP2;ratioP2;P2;SDS_P1;SDS_P2;PMS_P1;PMS_P2;Temp;Humidity;BMP_temperature;BMP_pressure;BME280_temperature;BME280_humidity;BME280_pressure;Samples;Min_cycle;Max_cycle;Signal;HPM_P1;HPM_P2
2021/01/29 00:00:33;;;;;;;100.45;44.17;;;;;;;;;;1032026;28;20061;-85
2021/01/29 00:01:05;;;;;;;86.22;40.15;;;;;;;;;;1032652;28;20085;-84
2021/01/29 00:01:36;;;;;;;100.38;43.05;;;;;;;;;;1028027;28;20555;-85
2021/01/29 00:02:07;;;;;;;93.68;45.13;;;;;;;;;;1032515;28;20153;-85
2021/01/29 00:02:39;;;;;;;85.10;42.38;;;;;;;;;;1036085;28;20108;-85
2021/01/29 00:03:15;;;;;;;105.35;48.72;;;;;;;;;;1036550;28;20136;-85
2021/01/29 00:03:46;;;;;;;94.75;44.05;;;;;;;;;;1032258;28;20403;-85
2021/01/29 00:04:17;;;;;;;92.45;42.45;;;;;;;;;;1028128;28;20047;-85
2021/01/29 00:04:48;;;;;;;102.90;45.20;;;;;;;;;;1036312;28;20056;-85
2021/01/29 00:05:23;;;;;;;97.10;42.50;;;;;;;;;;1036209;28;20141;-85
2021/01/29 00:05:58;;;;;;;90.80;42.63;;;;;;;;;;1032113;28;20054;-85
2021/01/29 00:06:29;;;;;;;93.28;42.08;;;;;;;;;;1028496;28;20419;-84
2021/01/29 00:07:00;;;;;;;88.88;41.20;;;;;;;;;;1033459;28;20546;-85
2021/01/29 00:07:31;;;;;;;90.55;41.88;;;;;;;;;;1029806;28;20137;-85
2021/01/29 00:08:02;;;;;;;102.40;45.22;;;;;;;;;;1032496;28;20053;-85
2021/01/29 00:08:33;;;;;;;103.22;45.53;;;;;;;;;;1027957;28;20050;-86
2021/01/29 00:09:04;;;;;;;104.45;48.90;;;;;;;;;;1032092;28;20136;-86
2021/01/29 00:09:35;;;;;;;96.45;45.13;;;;;;;;;;1036219;28;20137;-85
2021/01/29 00:10:07;;;;;;;98.53;45.03;;;;;;;;;;1035974;28;20430;-86
2021/01/29 00:10:39;;;;;;;101.53;44.65;;;;;;;;;;1032161;28;20180;-86
2021/01/29 00:11:10;;;;;;;103.43;45.53;;;;;;;;;;1027869;28;20058;-86
2021/01/29 00:11:41;;;;;;;114.38;48.75;;;;;;;;;;1028012;28;20055;-85
2021/01/29 00:12:12;;;;;;;95.53;45.40;;;;;;;;;;1036201;28;20436;-85
2021/01/29 00:12:44;;;;;;;97.18;44.92;;;;;;;;;;1036165;28;20471;-86
2021/01/29 00:13:15;;;;;;;106.35;48.25;;;;;;;;;;1036311;28;20133;-86
2021/01/29 00:13:46;;;;;;;98.72;43.40;;;;;;;;;;1032167;28;20408;-86
2021/01/29 00:14:18;;;;;;;90.22;41.60;;;;;;;;;;1028748;28;20051;-85
2021/01/29 00:14:49;;;;;;;101.35;45.00;;;;;;;;;;1032753;28;20137;-85
2021/01/29 00:15:21;;;;;;;113.93;48.80;;;;;;;;;;1032518;28;20529;-85
2021/01/29 00:15:53;;;;;;;112.57;49.28;;;;;;;;;;1024156;29;20051;-86
2021/01/29 00:16:24;;;;;;;97.82;45.65;;;;;;;;;;1036163;28;20050;-86
2021/01/29 00:16:55;;;;;;;111.57;49.83;;;;;;;;;;1036119;28;20049;-85
2021/01/29 00:17:27;;;;;;;114.50;50.92;;;;;;;;;;1032601;28;20062;-86
2021/01/29 00:17:59;;;;;;;106.47;45.85;;;;;;;;;;1032809;28;20076;-86
2021/01/29 00:18:30;;;;;;;107.85;49.25;;;;;;;;;;1028565;28;20144;-86
2021/01/29 00:19:02;;;;;;;101.93;52.00;;;;;;;;;;1036155;28;20061;-86
2021/01/29 00:19:33;;;;;;;117.13;50.28;;;;;;;;;;1031842;28;20065;-86
2021/01/29 00:20:06;;;;;;;103.53;48.50;;;;;;;;;;1024564;29;20133;-86
2021/01/29 00:20:37;;;;;;;113.40;51.25;;;;;;;;;;1024156;29;20058;-86
2021/01/29 00:21:09;;;;;;;119.10;53.10;;;;;;;;;;1028082;28;20104;-85
2021/01/29 00:21:40;;;;;;;113.45;48.70;;;;;;;;;;1031841;28;20073;-85
2021/01/29 00:22:11;;;;;;;103.00;48.15;;;;;;;;;;1036233;28;20136;-86
2021/01/29 00:22:43;;;;;;;110.40;48.67;;;;;;;;;;1032408;28;20056;-86
2021/01/29 00:23:15;;;;;;;117.38;50.25;;;;;;;;;;1032043;28;20072;-86
2021/01/29 00:23:46;;;;;;;119.38;56.08;;;;;;;;;;1031795;28;20050;-86
2021/01/29 00:24:18;;;;;;;129.65;53.15;;;;;;;;;;1039799;28;20099;-86
2021/01/29 00:24:49;;;;;;;101.88;48.05;;;;;;;;;;1040070;28;20187;-86
2021/01/29 00:25:22;;;;;;;105.25;49.53;;;;;;;;;;1032150;28;20042;-86
2021/01/29 00:25:54;;;;;;;106.85;46.65;;;;;;;;;;1035993;28;20057;-86
2021/01/29 00:26:25;;;;;;;103.15;46.90;;;;;;;;;;1040286;28;20486;-86
2021/01/29 00:26:56;;;;;;;128.63;54.33;;;;;;;;;;1032031;28;20481;-86
2021/01/29 00:27:28;;;;;;;120.40;52.67;;;;;;;;;;1031409;28;20046;-86
2021/01/29 00:28:00;;;;;;;114.38;50.13;;;;;;;;;;1036311;28;20049;-86
2021/01/29 00:28:31;;;;;;;116.13;52.85;;;;;;;;;;1032646;28;20129;-86
2021/01/29 00:29:02;;;;;;;136.77;56.67;;;;;;;;;;1027888;28;20054;-86
2021/01/29 00:29:33;;;;;;;115.13;52.17;;;;;;;;;;1031976;28;20514;-86
2021/01/29 00:30:06;;;;;;;123.70;51.53;;;;;;;;;;1028256;28;20047;-85
2021/01/29 00:30:37;;;;;;;131.90;56.38;;;;;;;;;;1031967;28;20178;-86
2021/01/29 00:31:08;;;;;;;116.38;50.58;;;;;;;;;;1028012;28;20050;-86
2021/01/29 00:31:39;;;;;;;126.93;54.50;;;;;;;;;;1031989;28;20050;-86
2021/01/29 00:32:10;;;;;;;124.40;53.83;;;;;;;;;;1029470;28;20042;-86
2021/01/29 00:32:42;;;;;;;125.93;56.60;;;;;;;;;;1032578;28;20042;-87
2021/01/29 00:33:15;;;;;;;131.90;55.58;;;;;;;;;;1029101;28;20086;-86
2021/01/29 00:33:46;;;;;;;121.07;55.67;;;;;;;;;;1032701;28;20046;-86
2021/01/29 00:34:17;;;;;;;130.68;57.78;;;;;;;;;;1031815;28;20053;-86
2021/01/29 00:34:48;;;;;;;152.52;60.63;;;;;;;;;;1027325;28;20364;-86
2021/01/29 00:35:21;;;;;;;139.75;57.33;;;;;;;;;;1028376;28;20431;-86
2021/01/29 00:35:52;;;;;;;139.23;58.83;;;;;;;;;;1031915;28;20440;-86
2021/01/29 00:36:24;;;;;;;136.55;53.58;;;;;;;;;;1032541;28;20137;-86
2021/01/29 00:36:55;;;;;;;144.93;60.47;;;;;;;;;;1037387;28;20049;-86
2021/01/29 00:37:26;;;;;;;124.22;56.35;;;;;;;;;;1032415;28;20046;-87
2021/01/29 00:37:58;;;;;;;154.10;62.42;;;;;;;;;;1032028;28;20046;-86
2021/01/29 00:38:29;;;;;;;178.68;68.32;;;;;;;;;;1028008;28;20174;-85
2021/01/29 00:39:00;;;;;;;163.50;63.30;;;;;;;;;;1028099;28;20050;-86
2021/01/29 00:39:31;;;;;;;148.65;64.10;;;;;;;;;;1023934;28;20062;-86
2021/01/29 00:40:04;;;;;;;152.73;59.97;;;;;;;;;;1028089;28;20078;-87
2021/01/29 00:40:35;;;;;;;166.90;65.30;;;;;;;;;;1028579;28;20087;-86
2021/01/29 00:41:06;;;;;;;156.23;63.88;;;;;;;;;;1027726;28;20507;-86
2021/01/29 00:41:38;;;;;;;162.80;64.85;;;;;;;;;;1028614;28;20141;-86
2021/01/29 00:42:09;;;;;;;164.80;66.30;;;;;;;;;;1036059;28;20045;-86
2021/01/29 00:42:40;;;;;;;147.95;59.42;;;;;;;;;;1039799;28;20045;-86
2021/01/29 00:43:15;;;;;;;185.05;71.82;;;;;;;;;;1036016;28;20465;-86
2021/01/29 00:43:46;;;;;;;177.48;64.82;;;;;;;;;;1036024;28;20099;-86
2021/01/29 00:44:18;;;;;;;178.63;66.90;;;;;;;;;;1033261;28;20133;-85
2021/01/29 00:44:49;;;;;;;206.32;74.50;;;;;;;;;;1036123;28;20054;-86
2021/01/29 00:45:23;;;;;;;188.27;71.38;;;;;;;;;;1035914;28;20042;-86
2021/01/29 00:45:54;;;;;;;159.90;64.78;;;;;;;;;;1035504;28;20050;-86
2021/01/29 00:46:25;;;;;;;181.07;67.13;;;;;;;;;;1027924;28;20117;-86
2021/01/29 00:46:56;;;;;;;187.68;67.93;;;;;;;;;;1035781;28;20112;-87
2021/01/29 00:47:28;;;;;;;188.85;67.93;;;;;;;;;;1036136;28;20470;-87
2021/01/29 00:47:59;;;;;;;197.75;71.82;;;;;;;;;;1035890;28;20057;-86
2021/01/29 00:48:30;;;;;;;189.15;72.32;;;;;;;;;;1027249;28;20177;-86
2021/01/29 00:49:01;;;;;;;240.80;83.07;;;;;;;;;;1028148;28;20137;-86
2021/01/29 00:49:32;;;;;;;174.23;71.15;;;;;;;;;;1034896;28;20151;-86
2021/01/29 00:50:05;;;;;;;174.20;67.10;;;;;;;;;;1037681;28;20548;-86
2021/01/29 00:50:37;;;;;;;172.25;65.43;;;;;;;;;;1036697;28;20053;-86
2021/01/29 00:51:08;;;;;;;179.10;67.53;;;;;;;;;;1032010;28;20089;-86
2021/01/29 00:51:39;;;;;;;197.77;70.72;;;;;;;;;;1028599;28;20151;-87
2021/01/29 00:52:10;;;;;;;225.02;84.13;;;;;;;;;;1032036;28;20266;-87
2021/01/29 00:52:41;;;;;;;209.15;77.63;;;;;;;;;;1031689;28;20404;-85
2021/01/29 00:53:12;;;;;;;203.15;76.38;;;;;;;;;;1031845;28;20446;-86
2021/01/29 00:53:44;;;;;;;216.02;81.97;;;;;;;;;;1032033;28;20507;-86
2021/01/29 00:54:15;;;;;;;202.95;75.40;;;;;;;;;;1031906;28;20145;-85
2021/01/29 00:54:46;;;;;;;171.93;65.57;;;;;;;;;;1029473;28;20047;-86
2021/01/29 00:55:18;;;;;;;213.63;77.95;;;;;;;;;;1031896;28;20050;-86
2021/01/29 00:55:49;;;;;;;202.15;72.38;;;;;;;;;;1028529;28;20053;-86
2021/01/29 00:56:20;;;;;;;198.68;72.55;;;;;;;;;;1035552;28;20137;-86
2021/01/29 00:56:51;;;;;;;214.32;74.20;;;;;;;;;;1040098;28;20480;-87
2021/01/29 00:57:23;;;;;;;205.02;69.07;;;;;;;;;;1035981;28;20414;-86
2021/01/29 00:57:57;;;;;;;204.85;68.03;;;;;;;;;;1026456;28;20051;-87
2021/01/29 00:58:28;;;;;;;225.18;75.35;;;;;;;;;;1027994;28;20562;-86
2021/01/29 00:58:59;;;;;;;228.43;75.00;;;;;;;;;;1032037;28;20526;-86
2021/01/29 00:59:30;;;;;;;211.63;72.35;;;;;;;;;;1029139;28;20047;-85
2021/01/29 01:00:01;;;;;;;234.75;73.03;;;;;;;;;;1035599;28;20045;-87
2021/01/29 01:00:32;;;;;;;224.48;70.65;;;;;;;;;;1032306;28;20046;-87
2021/01/29 01:01:05;;;;;;;214.63;72.30;;;;;;;;;;1033456;28;20133;-85
2021/01/29 01:01:36;;;;;;;215.98;74.30;;;;;;;;;;1036737;28;20506;-86
2021/01/29 01:02:07;;;;;;;196.63;74.30;;;;;;;;;;1039347;28;20045;-87
2021/01/29 01:02:38;;;;;;;225.13;77.95;;;;;;;;;;1031872;28;20062;-86
2021/01/29 01:03:09;;;;;;;214.70;71.30;;;;;;;;;;1028523;28;20069;-87
2021/01/29 01:03:40;;;;;;;232.65;72.85;;;;;;;;;;1032072;28;20054;-86
2021/01/29 01:04:13;;;;;;;213.98;72.75;;;;;;;;;;1031962;28;20050;-86
2021/01/29 01:04:44;;;;;;;215.52;75.47;;;;;;;;;;1032454;28;20471;-87
2021/01/29 01:05:17;;;;;;;233.50;76.85;;;;;;;;;;1032455;28;20061;-86
2021/01/29 01:05:48;;;;;;;227.07;74.88;;;;;;;;;;1036441;28;20144;-86
2021/01/29 01:06:20;;;;;;;257.13;79.75;;;;;;;;;;1031924;28;20751;-86
2021/01/29 01:06:51;;;;;;;224.18;78.18;;;;;;;;;;1036093;28;20050;-87
2021/01/29 01:07:22;;;;;;;287.77;87.30;;;;;;;;;;1031741;28;20514;-86
2021/01/29 01:07:54;;;;;;;209.23;76.45;;;;;;;;;;1026877;28;20047;-86
2021/01/29 01:08:28;;;;;;;219.13;75.35;;;;;;;;;;1019995;29;20051;-86
2021/01/29 01:08:59;;;;;;;230.27;76.65;;;;;;;;;;1027998;28;20133;-86
2021/01/29 01:09:30;;;;;;;225.02;76.45;;;;;;;;;;1031532;28;20136;-86
2021/01/29 01:10:01;;;;;;;234.73;77.03;;;;;;;;;;1032029;28;20085;-87
2021/01/29 01:10:32;;;;;;;242.10;83.28;;;;;;;;;;1035422;28;20053;-86
2021/01/29 01:11:03;;;;;;;224.57;79.65;;;;;;;;;;1034494;28;20042;-86
2021/01/29 01:11:40;;;;;;;237.32;78.55;;;;;;;;;;1032071;28;20054;-86
2021/01/29 01:12:11;;;;;;;253.15;85.05;;;;;;;;;;1033636;28;20046;-86
2021/01/29 01:12:42;;;;;;;255.60;79.82;;;;;;;;;;1035905;28;20046;-86
2021/01/29 01:13:13;;;;;;;286.83;92.53;;;;;;;;;;1027900;28;20129;-86
2021/01/29 01:13:44;;;;;;;249.23;82.38;;;;;;;;;;1031785;28;20137;-86
2021/01/29 01:14:18;;;;;;;265.88;85.85;;;;;;;;;;1023951;28;20551;-85
2021/01/29 01:14:50;;;;;;;236.57;83.88;;;;;;;;;;1031963;28;20076;-86
2021/01/29 01:15:24;;;;;;;162.57;66.97;;;;;;;;;;1027802;28;20404;-85
2021/01/29 01:15:55;;;;;;;173.23;69.05;;;;;;;;;;1030745;28;20158;-85
2021/01/29 01:16:27;;;;;;;206.85;77.00;;;;;;;;;;1027962;28;20050;-86
2021/01/29 01:16:59;;;;;;;238.35;82.28;;;;;;;;;;1032818;28;20136;-85
2021/01/29 01:17:30;;;;;;;231.20;79.22;;;;;;;;;;1036524;28;20054;-86
2021/01/29 01:18:04;;;;;;;276.90;88.32;;;;;;;;;;1035974;28;20050;-86
2021/01/29 01:18:36;;;;;;;239.98;85.28;;;;;;;;;;1031775;28;20049;-85
2021/01/29 01:19:07;;;;;;;266.77;93.32;;;;;;;;;;1028115;28;20055;-86
2021/01/29 01:19:38;;;;;;;252.32;82.70;;;;;;;;;;1032118;28;20137;-87
2021/01/29 01:20:11;;;;;;;254.02;81.93;;;;;;;;;;1027866;28;20549;-86
2021/01/29 01:20:42;;;;;;;235.48;79.82;;;;;;;;;;1023667;28;20062;-86
2021/01/29 01:21:14;;;;;;;254.57;87.43;;;;;;;;;;1032092;28;20100;-87
2021/01/29 01:21:45;;;;;;;245.55;82.63;;;;;;;;;;1031871;28;20058;-88
2021/01/29 01:22:16;;;;;;;261.75;83.80;;;;;;;;;;1035941;28;20422;-86
2021/01/29 01:22:48;;;;;;;242.23;79.78;;;;;;;;;;1031851;28;20057;-87
2021/01/29 01:23:19;;;;;;;273.10;87.40;;;;;;;;;;1036038;28;20054;-86
2021/01/29 01:23:50;;;;;;;264.67;85.47;;;;;;;;;;1029199;28;20046;-86
2021/01/29 01:24:21;;;;;;;247.05;82.40;;;;;;;;;;1032319;28;20129;-86
2021/01/29 01:24:52;;;;;;;285.42;89.78;;;;;;;;;;1028858;28;20137;-86
2021/01/29 01:25:23;;;;;;;280.60;90.18;;;;;;;;;;1035587;28;20506;-86
2021/01/29 01:25:54;;;;;;;256.05;88.88;;;;;;;;;;1031679;28;20046;-86
2021/01/29 01:26:26;;;;;;;267.90;87.13;;;;;;;;;;1032170;28;20048;-87
2021/01/29 01:26:57;;;;;;;245.40;84.93;;;;;;;;;;1036195;28;20177;-87
2021/01/29 01:27:28;;;;;;;294.60;91.82;;;;;;;;;;1040055;28;20081;-87
2021/01/29 01:27:59;;;;;;;283.77;89.03;;;;;;;;;;1035882;28;20140;-85
2021/01/29 01:28:30;;;;;;;301.50;93.13;;;;;;;;;;1032329;28;20058;-86
2021/01/29 01:29:02;;;;;;;276.45;91.15;;;;;;;;;;1029559;28;20456;-86
2021/01/29 01:29:33;;;;;;;311.92;103.43;;;;;;;;;;1032241;28;20072;-87
2021/01/29 01:30:07;;;;;;;267.63;91.38;;;;;;;;;;1032384;28;20137;-86
2021/01/29 01:30:39;;;;;;;280.55;91.45;;;;;;;;;;1038661;28;20054;-86
2021/01/29 01:31:11;;;;;;;282.40;90.88;;;;;;;;;;1035986;28;20054;-87
2021/01/29 01:31:41;;;;;;;305.38;95.15;;;;;;;;;;1036030;28;20103;-87
2021/01/29 01:32:13;;;;;;;248.82;88.28;;;;;;;;;;1028035;28;20050;-86
2021/01/29 01:32:44;;;;;;;311.48;100.55;;;;;;;;;;1023788;29;20047;-85
2021/01/29 01:33:16;;;;;;;298.95;93.03;;;;;;;;;;1031954;28;20046;-88
2021/01/29 01:33:47;;;;;;;275.55;88.03;;;;;;;;;;1035536;28;20398;-88
2021/01/29 01:34:19;;;;;;;267.80;88.82;;;;;;;;;;1027687;28;20393;-89
2021/01/29 01:34:51;;;;;;;245.23;82.55;;;;;;;;;;1028045;28;20051;-89
2021/01/29 01:35:23;;;;;;;278.48;89.78;;;;;;;;;;1031957;28;20050;-90
2021/01/29 01:35:54;;;;;;;254.88;84.65;;;;;;;;;;1035816;28;20085;-89
2021/01/29 01:36:25;;;;;;;235.68;82.45;;;;;;;;;;1040168;28;20645;-89
2021/01/29 01:36:56;;;;;;;246.25;84.20;;;;;;;;;;1032461;28;20050;-89
2021/01/29 01:37:27;;;;;;;282.65;91.05;;;;;;;;;;1031997;28;20053;-90
2021/01/29 01:37:59;;;;;;;240.15;79.13;;;;;;;;;;1027984;28;20178;-91
2021/01/29 01:38:30;;;;;;;218.40;78.32;;;;;;;;;;1027936;28;20476;-89
2021/01/29 01:39:02;;;;;;;244.73;85.53;;;;;;;;;;1028047;28;20058;-89
2021/01/29 01:39:33;;;;;;;208.30;79.80;;;;;;;;;;1032302;28;20125;-89
2021/01/29 01:40:06;;;;;;;241.45;82.40;;;;;;;;;;1027273;28;20464;-89
2021/01/29 01:40:40;;;;;;;245.15;80.97;;;;;;;;;;1024759;28;20058;-89
2021/01/29 01:41:11;;;;;;;233.05;81.28;;;;;;;;;;1027828;28;20122;-89
2021/01/29 01:41:42;;;;;;;252.25;82.63;;;;;;;;;;1032011;28;20491;-89
2021/01/29 01:42:13;;;;;;;259.67;84.15;;;;;;;;;;1032887;28;20630;-89
2021/01/29 01:42:45;;;;;;;238.82;81.63;;;;;;;;;;1032614;28;20078;-89
2021/01/29 01:43:16;;;;;;;285.45;88.82;;;;;;;;;;1030681;28;20046;-88
2021/01/29 01:43:47;;;;;;;222.40;80.05;;;;;;;;;;1031978;28;20185;-89
2021/01/29 01:44:29;;;;;;;247.77;81.57;;;;;;;;;;1029866;28;20101;-89
2021/01/29 01:45:00;;;;;;;261.90;84.43;;;;;;;;;;1038270;28;20053;-89
2021/01/29 01:45:31;;;;;;;244.45;87.10;;;;;;;;;;1036122;28;20052;-90
2021/01/29 01:46:02;;;;;;;279.63;88.70;;;;;;;;;;1037272;28;20124;-90
2021/01/29 01:46:34;;;;;;;267.58;87.72;;;;;;;;;;1039722;28;20553;-90
2021/01/29 01:47:22;;;;;;;242.57;81.03;;;;;;;;;;1036101;28;20046;-89
2021/01/29 01:47:56;;;;;;;251.15;84.78;;;;;;;;;;1031805;28;20540;-90
2021/01/29 01:48:44;;;;;;;212.32;78.43;;;;;;;;;;1036133;28;20045;-91
2021/01/29 01:49:16;;;;;;;243.18;78.30;;;;;;;;;;1031999;28;20180;-90
2021/01/29 01:49:53;;;;;;;223.40;78.38;;;;;;;;;;1029380;28;20058;-90
2021/01/29 01:50:39;;;;;;;216.02;75.75;;;;;;;;;;1028015;28;20070;-89
2021/01/29 01:51:18;;;;;;;194.82;71.05;;;;;;;;;;1031908;28;20050;-89
2021/01/29 01:51:55;;;;;;;213.48;75.57;;;;;;;;;;1036080;28;20060;-89
2021/01/29 01:52:34;;;;;;;232.40;78.30;;;;;;;;;;1031981;28;20050;-90
2021/01/29 01:53:12;;;;;;;235.88;81.18;;;;;;;;;;1035942;28;20045;-89
2021/01/29 01:53:45;;;;;;;201.00;73.15;;;;;;;;;;1035809;28;20518;-89
2021/01/29 01:54:24;;;;;;;205.07;71.03;;;;;;;;;;1027938;28;20065;-90
2021/01/29 01:55:01;;;;;;;216.95;73.93;;;;;;;;;;1027890;28;20444;-89
2021/01/29 01:55:35;;;;;;;240.65;81.72;;;;;;;;;;1028026;28;20093;-89
2021/01/29 01:56:15;;;;;;;210.88;78.03;;;;;;;;;;1023612;28;20043;-89
2021/01/29 01:56:52;;;;;;;208.38;73.18;;;;;;;;;;1031849;28;20113;-90
2021/01/29 01:57:24;;;;;;;203.95;71.05;;;;;;;;;;1030881;28;20098;-89
2021/01/29 01:57:58;;;;;;;234.40;79.40;;;;;;;;;;1032622;28;20047;-88
2021/01/29 01:58:30;;;;;;;201.23;74.53;;;;;;;;;;1037844;28;20113;-89
2021/01/29 01:59:04;;;;;;;223.32;74.40;;;;;;;;;;1032018;28;20077;-88
2021/01/29 01:59:42;;;;;;;219.75;77.05;;;;;;;;;;1032971;28;20046;-88
2021/01/29 02:00:18;;;;;;;231.13;79.07;;;;;;;;;;1027854;28;20086;-88
2021/01/29 02:00:50;;;;;;;210.75;76.50;;;;;;;;;;1034720;28;20624;-88
2021/01/29 02:01:23;;;;;;;221.10;77.07;;;;;;;;;;1035905;28;20054;-87
2021/01/29 02:01:56;;;;;;;244.68;84.10;;;;;;;;;;1031900;28;20057;-87
2021/01/29 02:02:29;;;;;;;241.43;81.15;;;;;;;;;;1027711;28;20451;-87
2021/01/29 02:03:12;;;;;;;216.20;77.43;;;;;;;;;;1031794;28;20090;-87
2021/01/29 02:03:43;;;;;;;222.50;82.65;;;;;;;;;;1035901;28;20509;-87
2021/01/29 02:04:15;;;;;;;224.50;79.90;;;;;;;;;;1039937;28;20056;-87
2021/01/29 02:04:46;;;;;;;218.60;77.85;;;;;;;;;;1040019;28;20046;-87
2021/01/29 02:05:24;;;;;;;220.75;80.55;;;;;;;;;;1040041;28;20098;-88
2021/01/29 02:05:59;;;;;;;232.77;79.18;;;;;;;;;;1035321;28;20141;-88
2021/01/29 02:06:41;;;;;;;260.60;86.65;;;;;;;;;;1025402;28;20142;-90
2021/01/29 02:07:22;;;;;;;228.13;79.43;;;;;;;;;;1028048;28;20106;-88
2021/01/29 02:07:57;;;;;;;259.83;87.57;;;;;;;;;;1027832;28;20050;-88
2021/01/29 02:08:30;;;;;;;206.35;74.18;;;;;;;;;;1035694;28;20049;-89
2021/01/29 02:09:04;;;;;;;198.63;77.45;;;;;;;;;;1040168;28;20049;-90
2021/01/29 02:09:53;;;;;;;207.35;70.22;;;;;;;;;;1039987;28;20061;-89
2021/01/29 02:10:26;;;;;;;213.52;76.05;;;;;;;;;;1040033;28;20056;-89
2021/01/29 02:10:58;;;;;;;225.68;77.45;;;;;;;;;;1040057;28;20049;-91
2021/01/29 02:11:29;;;;;;;194.30;72.70;;;;;;;;;;1036111;28;20184;-90
2021/01/29 02:12:00;;;;;;;220.40;77.93;;;;;;;;;;1031813;28;20097;-90
2021/01/29 02:12:31;;;;;;;196.55;76.32;;;;;;;;;;1031867;28;20117;-88
2021/01/29 02:13:04;;;;;;;224.07;77.80;;;;;;;;;;1036128;28;20469;-90
2021/01/29 02:13:35;;;;;;;223.07;80.75;;;;;;;;;;1026799;28;20050;-88
2021/01/29 02:14:06;;;;;;;213.70;78.15;;;;;;;;;;1028486;28;20085;-89
2021/01/29 02:14:37;;;;;;;245.18;82.25;;;;;;;;;;1035969;28;20056;-89
2021/01/29 02:15:13;;;;;;;178.07;68.00;;;;;;;;;;1034334;28;20046;-89
2021/01/29 02:15:50;;;;;;;196.10;70.50;;;;;;;;;;1035966;28;20052;-88
2021/01/29 02:16:32;;;;;;;202.77;74.32;;;;;;;;;;1027792;28;20046;-88
2021/01/29 02:17:12;;;;;;;213.50;73.63;;;;;;;;;;1035644;28;20049;-88
2021/01/29 02:17:48;;;;;;;200.25;73.80;;;;;;;;;;1040095;28;20053;-89
2021/01/29 02:18:36;;;;;;;232.18;81.97;;;;;;;;;;1039955;28;20045;-87
2021/01/29 02:19:13;;;;;;;202.13;70.45;;;;;;;;;;1039893;28;20135;-89
2021/01/29 02:19:56;;;;;;;200.60;72.20;;;;;;;;;;1040031;28;20071;-89
2021/01/29 02:20:51;;;;;;;211.52;78.03;;;;;;;;;;1044084;28;20107;-88
2021/01/29 02:21:49;;;;;;;177.98;69.07;;;;;;;;;;1044234;28;20115;-88
2021/01/29 02:22:32;;;;;;;192.88;71.25;;;;;;;;;;1042104;28;20049;-88
2021/01/29 02:23:40;;;;;;;202.05;71.10;;;;;;;;;;1044119;28;20049;-88
2021/01/29 02:24:29;;;;;;;197.23;70.18;;;;;;;;;;1040119;28;20176;-87
2021/01/29 02:25:22;;;;;;;185.98;66.13;;;;;;;;;;1040881;28;20049;-87
2021/01/29 02:26:29;;;;;;;202.15;72.90;;;;;;;;;;1043977;28;20051;-89
2021/01/29 02:27:34;;;;;;;179.13;64.93;;;;;;;;;;1042011;28;20087;-88
2021/01/29 02:28:11;;;;;;;179.50;66.93;;;;;;;;;;1044700;28;20123;-87
2021/01/29 02:29:19;;;;;;;198.20;73.75;;;;;;;;;;1038093;28;20051;-89
2021/01/29 02:30:18;;;;;;;194.95;68.03;;;;;;;;;;1040700;28;20132;-89
2021/01/29 02:31:03;;;;;;;181.73;66.07;;;;;;;;;;1040804;28;20056;-89
2021/01/29 02:32:03;;;;;;;183.57;69.63;;;;;;;;;;1043382;28;20084;-89
2021/01/29 02:33:02;;;;;;;164.57;60.20;;;;;;;;;;1038295;28;20486;-88
2021/01/29 02:34:31;;;;;;;177.52;66.10;;;;;;;;;;1041372;28;20045;-88
2021/01/29 02:35:20;;;;;;;176.90;66.45;;;;;;;;;;1036602;28;20131;-88
2021/01/29 02:36:18;;;;;;;166.85;63.78;;;;;;;;;;1032438;28;20556;-88
2021/01/29 02:37:09;;;;;;;166.20;63.80;;;;;;;;;;1033715;28;20054;-88
2021/01/29 02:38:10;;;;;;;169.82;62.17;;;;;;;;;;1038856;28;20053;-87
2021/01/29 02:39:02;;;;;;;146.70;58.58;;;;;;;;;;1039944;28;20139;-88
2021/01/29 02:40:13;;;;;;;162.63;63.22;;;;;;;;;;1040387;28;20132;-87
2021/01/29 02:40:56;;;;;;;159.10;58.65;;;;;;;;;;1039012;28;20050;-87
2021/01/29 02:41:55;;;;;;;157.50;61.75;;;;;;;;;;1036495;28;20482;-88
2021/01/29 02:42:34;;;;;;;156.80;55.70;;;;;;;;;;1037856;28;20528;-87
2021/01/29 02:43:47;;;;;;;154.02;60.10;;;;;;;;;;1042266;28;20072;-88
2021/01/29 02:44:50;;;;;;;161.57;60.20;;;;;;;;;;1036840;28;20050;-87
2021/01/29 02:45:35;;;;;;;148.48;58.63;;;;;;;;;;1036243;28;20490;-87
2021/01/29 02:46:29;;;;;;;154.07;61.88;;;;;;;;;;1025967;28;20405;-87
2021/01/29 02:47:11;;;;;;;173.35;66.00;;;;;;;;;;1030986;28;20047;-87
2021/01/29 02:47:54;;;;;;;174.07;62.78;;;;;;;;;;1039295;28;20092;-87
2021/01/29 02:48:34;;;;;;;165.70;61.80;;;;;;;;;;1040464;28;20099;-87
2021/01/29 02:49:20;;;;;;;159.43;59.40;;;;;;;;;;1036446;28;20076;-87
2021/01/29 02:50:17;;;;;;;170.10;63.38;;;;;;;;;;1037467;28;20056;-87
2021/01/29 02:51:09;;;;;;;162.50;62.15;;;;;;;;;;1033762;28;20144;-87
2021/01/29 02:52:05;;;;;;;178.88;65.32;;;;;;;;;;1035042;28;20507;-86
2021/01/29 02:52:59;;;;;;;182.98;64.75;;;;;;;;;;1036420;28;20128;-87
2021/01/29 02:53:53;;;;;;;167.75;62.85;;;;;;;;;;1032583;28;20046;-87
2021/01/29 02:54:38;;;;;;;162.20;61.08;;;;;;;;;;1033309;28;20073;-87
2021/01/29 02:55:30;;;;;;;168.90;64.22;;;;;;;;;;1031002;28;20118;-88
2021/01/29 02:56:06;;;;;;;170.23;63.55;;;;;;;;;;1033972;28;20043;-87
2021/01/29 02:56:39;;;;;;;179.32;64.00;;;;;;;;;;1036494;28;20479;-87
2021/01/29 02:57:24;;;;;;;180.80;67.72;;;;;;;;;;1036625;28;20046;-88
2021/01/29 02:58:06;;;;;;;187.73;69.30;;;;;;;;;;1035517;28;20453;-89
2021/01/29 02:58:49;;;;;;;181.27;65.75;;;;;;;;;;1032349;28;20054;-87
2021/01/29 02:59:33;;;;;;;177.18;69.72;;;;;;;;;;1032103;28;20050;-87
2021/01/29 03:00:19;;;;;;;183.13;65.90;;;;;;;;;;1036537;28;20056;-88
2021/01/29 03:00:58;;;;;;;186.63;68.82;;;;;;;;;;1040495;28;20077;-86
2021/01/29 03:01:48;;;;;;;174.38;65.90;;;;;;;;;;1040472;28;20049;-87
2021/01/29 03:02:30;;;;;;;193.35;70.10;;;;;;;;;;1034768;28;20052;-86
2021/01/29 03:03:07;;;;;;;194.07;67.55;;;;;;;;;;1040356;28;20084;-86
2021/01/29 03:03:49;;;;;;;186.75;65.85;;;;;;;;;;1044700;28;20100;-86
2021/01/29 03:04:37;;;;;;;162.52;63.15;;;;;;;;;;1036257;28;20068;-86
2021/01/29 03:05:13;;;;;;;165.40;61.38;;;;;;;;;;1028464;28;20113;-87
2021/01/29 03:05:56;;;;;;;163.95;64.50;;;;;;;;;;1028212;28;20047;-86
2021/01/29 03:06:35;;;;;;;171.32;65.45;;;;;;;;;;1032328;28;20050;-86
2021/01/29 03:07:17;;;;;;;176.15;66.60;;;;;;;;;;1035885;28;20054;-86
2021/01/29 03:08:06;;;;;;;158.18;63.80;;;;;;;;;;1032483;28;20069;-86
2021/01/29 03:08:43;;;;;;;172.45;64.20;;;;;;;;;;1036466;28;20050;-86
2021/01/29 03:09:31;;;;;;;182.82;68.15;;;;;;;;;;1032257;28;20050;-86
2021/01/29 03:10:09;;;;;;;190.90;71.32;;;;;;;;;;1032264;28;20526;-86
2021/01/29 03:10:59;;;;;;;175.95;64.80;;;;;;;;;;1036555;28;20050;-86
2021/01/29 03:11:47;;;;;;;178.05;67.28;;;;;;;;;;1032250;28;20517;-87
2021/01/29 03:12:34;;;;;;;173.60;64.68;;;;;;;;;;1030202;28;20054;-87
2021/01/29 03:13:09;;;;;;;169.90;64.20;;;;;;;;;;1032889;28;20052;-86
2021/01/29 03:13:58;;;;;;;201.25;71.50;;;;;;;;;;1024154;28;20047;-87
2021/01/29 03:14:37;;;;;;;193.70;67.43;;;;;;;;;;1028386;28;20109;-87
2021/01/29 03:15:13;;;;;;;180.60;67.15;;;;;;;;;;1032229;28;20265;-88
2021/01/29 03:16:00;;;;;;;179.45;66.57;;;;;;;;;;1040548;28;20128;-87
2021/01/29 03:16:42;;;;;;;186.30;67.47;;;;;;;;;;1032379;28;20416;-87
2021/01/29 03:17:19;;;;;;;186.80;69.30;;;;;;;;;;1032278;28;20053;-86
2021/01/29 03:18:06;;;;;;;188.60;69.03;;;;;;;;;;1028576;28;20051;-87
2021/01/29 03:18:49;;;;;;;191.10;70.57;;;;;;;;;;1032799;28;20104;-86
2021/01/29 03:19:48;;;;;;;202.40;70.72;;;;;;;;;;1028325;28;20099;-86
2021/01/29 03:20:27;;;;;;;196.95;69.15;;;;;;;;;;1033718;28;20042;-86
2021/01/29 03:21:09;;;;;;;197.65;68.88;;;;;;;;;;1037438;28;20525;-87
2021/01/29 03:21:44;;;;;;;200.95;69.30;;;;;;;;;;1040393;28;20054;-86
2021/01/29 03:22:25;;;;;;;176.77;64.45;;;;;;;;;;1032201;28;20050;-86
2021/01/29 03:23:08;;;;;;;177.07;64.13;;;;;;;;;;1028301;28;20050;-86
2021/01/29 03:23:45;;;;;;;182.20;67.10;;;;;;;;;;1036098;28;20527;-87
2021/01/29 03:24:27;;;;;;;195.15;70.18;;;;;;;;;;1032170;28;20399;-86
2021/01/29 03:25:18;;;;;;;166.32;64.47;;;;;;;;;;1035215;28;20129;-87
2021/01/29 03:25:56;;;;;;;192.85;67.90;;;;;;;;;;1033446;28;20073;-87
2021/01/29 03:26:35;;;;;;;191.20;67.65;;;;;;;;;;1032361;28;20046;-87
2021/01/29 03:27:10;;;;;;;187.00;67.80;;;;;;;;;;1035958;28;20042;-86
2021/01/29 03:27:47;;;;;;;190.18;67.43;;;;;;;;;;1032360;28;20046;-87
2021/01/29 03:28:23;;;;;;;209.95;70.80;;;;;;;;;;1033081;28;20136;-86
2021/01/29 03:29:00;;;;;;;222.68;77.28;;;;;;;;;;1032058;28;20053;-87
2021/01/29 03:29:38;;;;;;;211.95;72.85;;;;;;;;;;1028301;28;20050;-86